Time;durP1;ratioP1;P1;durP2;ratioP2;P2;SDS_P1;SDS_P2;PMS_P1;PMS_P2;Temp;Humidity;BMP_temperature;BMP_pressure;BME280_temperature;BME280_humidity;BME280_pressure;Samples;Min_cycle;Max_cycle;Signal;HPM_P1;HPM_P2
2021/04/08 00:01:32;;;;;;;0.70;0.30;;;;;;;;;;5009350;28;20101;-79
2021/04/08 00:03:59;;;;;;;1.93;0.50;;;;;;;;;;5023012;28;20039;-79
2021/04/08 00:06:24;;;;;;;;;;;;;;;;;;5011465;28;20103;-79
2021/04/08 00:08:49;;;;;;;1.30;0.30;;;;;;;;;;5047945;28;19924;-79
2021/04/08 00:11:15;;;;;;;1.30;0.53;;;;;;;;;;5042510;28;20402;-79
2021/04/08 00:13:40;;;;;;;1.60;0.53;;;;;;;;;;5033968;28;20124;-79
2021/04/08 00:16:06;;;;;;;1.00;0.40;;;;;;;;;;5031532;28;20025;-79
2021/04/08 00:18:31;;;;;;;1.07;0.50;;;;;;;;;;5048374;28;20021;-79
2021/04/08 00:20:57;;;;;;;1.07;0.50;;;;;;;;;;5024370;28;20487;-79
2021/04/08 00:23:22;;;;;;;1.53;0.30;;;;;;;;;;5021387;28;20036;-79
2021/04/08 00:25:48;;;;;;;0.83;0.47;;;;;;;;;;5051253;28;20545;-79
2021/04/08 00:28:13;;;;;;;1.17;0.40;;;;;;;;;;5034704;28;20054;-79
2021/04/08 00:30:45;;;;;;;1.63;0.30;;;;;;;;;;5051276;28;20048;-79
2021/04/08 00:33:14;;;;;;;0.88;0.40;;;;;;;;;;5042959;28;20052;-79
2021/04/08 00:35:40;;;;;;;1.20;0.50;;;;;;;;;;5020692;28;20067;-79
2021/04/08 00:38:05;;;;;;;1.10;0.40;;;;;;;;;;5034009;28;20020;-79
2021/04/08 00:40:31;;;;;;;0.40;0.30;;;;;;;;;;5056017;28;20159;-79
2021/04/08 00:42:56;;;;;;;1.13;0.40;;;;;;;;;;5031627;28;20021;-79
2021/04/08 00:45:22;;;;;;;1.27;0.50;;;;;;;;;;5036268;28;20020;-79
2021/04/08 00:47:47;;;;;;;1.63;0.40;;;;;;;;;;5026764;28;20028;-79
2021/04/08 00:50:13;;;;;;;1.43;0.43;;;;;;;;;;5062007;28;20433;-79
2021/04/08 00:52:38;;;;;;;0.90;0.40;;;;;;;;;;5034905;28;20028;-79
2021/04/08 00:55:04;;;;;;;0.90;0.50;;;;;;;;;;5050566;28;20326;-79
2021/04/08 00:57:29;;;;;;;1.67;0.50;;;;;;;;;;5032743;28;20029;-79
2021/04/08 00:59:55;;;;;;;0.90;0.40;;;;;;;;;;5058365;28;20024;-79
2021/04/08 01:02:21;;;;;;;0.88;0.30;;;;;;;;;;5044909;28;20032;-79
2021/04/08 01:04:46;;;;;;;0.90;0.40;;;;;;;;;;5014809;28;20079;-79
2021/04/08 01:07:11;;;;;;;0.97;0.40;;;;;;;;;;5014732;28;20171;-79
2021/04/08 01:09:37;;;;;;;1.30;0.50;;;;;;;;;;5015003;28;20024;-79
2021/04/08 01:12:03;;;;;;;1.33;0.50;;;;;;;;;;5017006;28;20028;-79
2021/04/08 01:14:28;;;;;;;1.67;0.60;;;;;;;;;;5022202;28;20084;-79
2021/04/08 01:17:03;;;;;;;1.03;0.40;;;;;;;;;;5040121;28;20048;-79
2021/04/08 01:19:44;;;;;;;1.55;0.50;;;;;;;;;;5050764;28;20025;-79
2021/04/08 01:22:41;;;;;;;1.20;0.30;;;;;;;;;;5050879;28;20028;-79
2021/04/08 01:25:19;;;;;;;0.85;0.32;;;;;;;;;;5030764;28;20048;-79
2021/04/08 01:28:09;;;;;;;1.02;0.40;;;;;;;;;;5066969;28;20028;-79
2021/04/08 01:30:49;;;;;;;0.80;0.40;;;;;;;;;;5057796;28;20036;-79
2021/04/08 01:33:25;;;;;;;1.90;0.30;;;;;;;;;;5030420;28;20542;-79
2021/04/08 01:35:51;;;;;;;1.55;0.35;;;;;;;;;;5015257;28;20439;-79
2021/04/08 01:38:26;;;;;;;1.33;0.40;;;;;;;;;;5031301;28;20029;-79
2021/04/08 01:40:52;;;;;;;1.75;0.40;;;;;;;;;;5050647;28;20032;-79
2021/04/08 01:43:21;;;;;;;0.90;0.40;;;;;;;;;;5031136;28;20046;-79
2021/04/08 01:45:48;;;;;;;1.05;0.40;;;;;;;;;;5051312;28;20029;-79
2021/04/08 01:48:13;;;;;;;0.82;0.40;;;;;;;;;;5040161;28;20467;-79
2021/04/08 01:50:38;;;;;;;1.00;0.40;;;;;;;;;;5031169;28;20053;-79
2021/04/08 01:53:04;;;;;;;1.83;0.40;;;;;;;;;;5030005;28;20021;-79
2021/04/08 01:55:31;;;;;;;0.83;0.30;;;;;;;;;;5030067;28;20017;-79
2021/04/08 01:57:56;;;;;;;0.93;0.40;;;;;;;;;;5047621;28;20084;-79
2021/04/08 02:00:22;;;;;;;0.63;0.30;;;;;;;;;;5050822;28;20085;-79
2021/04/08 02:02:49;;;;;;;1.37;0.50;;;;;;;;;;5040475;28;20024;-79
2021/04/08 02:05:15;;;;;;;0.70;0.30;;;;;;;;;;5030534;28;20028;-79
2021/04/08 02:07:42;;;;;;;1.48;0.35;;;;;;;;;;5013103;28;20025;-79
2021/04/08 02:10:08;;;;;;;1.63;0.40;;;;;;;;;;5015998;28;20035;-79
2021/04/08 02:12:35;;;;;;;1.13;0.40;;;;;;;;;;5042027;28;20124;-79
2021/04/08 02:15:01;;;;;;;0.60;0.30;;;;;;;;;;5046118;28;20023;-79
2021/04/08 02:17:26;;;;;;;0.50;0.30;;;;;;;;;;5030049;28;20394;-79
2021/04/08 02:19:52;;;;;;;1.03;0.30;;;;;;;;;;5030486;28;20391;-79
2021/04/08 02:22:17;;;;;;;0.60;0.30;;;;;;;;;;5013399;28;20021;-79
2021/04/08 02:24:43;;;;;;;0.97;0.40;;;;;;;;;;5022872;28;20119;-79
2021/04/08 02:27:08;;;;;;;1.02;0.40;;;;;;;;;;5044434;28;20027;-79
2021/04/08 02:29:34;;;;;;;1.50;0.40;;;;;;;;;;5013438;28;20039;-79
2021/04/08 02:32:00;;;;;;;0.63;0.43;;;;;;;;;;5014091;28;20162;-79
2021/04/08 02:34:25;;;;;;;1.38;0.30;;;;;;;;;;5045844;28;20392;-79
2021/04/08 02:36:50;;;;;;;1.10;0.40;;;;;;;;;;5030829;28;20043;-79
2021/04/08 02:39:16;;;;;;;1.13;0.40;;;;;;;;;;5012601;28;20035;-79
2021/04/08 02:41:42;;;;;;;0.77;0.40;;;;;;;;;;5047773;28;20056;-79
2021/04/08 02:44:07;;;;;;;1.60;0.50;;;;;;;;;;5033111;28;20032;-79
2021/04/08 02:46:33;;;;;;;1.10;0.40;;;;;;;;;;5033012;28;20024;-79
2021/04/08 02:48:58;;;;;;;0.93;0.40;;;;;;;;;;5066114;28;20047;-79
2021/04/08 02:51:26;;;;;;;1.13;0.43;;;;;;;;;;5047128;28;20453;-79
2021/04/08 02:53:56;;;;;;;0.95;0.50;;;;;;;;;;5032160;28;20033;-79
2021/04/08 02:56:33;;;;;;;0.60;0.20;;;;;;;;;;5032050;28;20046;-79
2021/04/08 02:59:03;;;;;;;1.55;0.40;;;;;;;;;;5028348;28;20040;-79
2021/04/08 03:01:28;;;;;;;0.40;0.30;;;;;;;;;;5019534;28;20028;-79
2021/04/08 03:03:55;;;;;;;0.77;0.30;;;;;;;;;;5049404;28;20021;-79
2021/04/08 03:06:20;;;;;;;;;;;;;;;;;;5014487;28;20036;-79
2021/04/08 03:08:51;;;;;;;0.63;0.30;;;;;;;;;;5032748;28;19909;-79
2021/04/08 03:11:19;;;;;;;1.13;0.40;;;;;;;;;;5037721;28;20020;-79
2021/04/08 03:13:45;;;;;;;0.70;0.30;;;;;;;;;;5037219;28;20051;-79
2021/04/08 03:16:12;;;;;;;0.87;0.37;;;;;;;;;;5052170;28;20020;-79
2021/04/08 03:18:39;;;;;;;0.95;0.45;;;;;;;;;;5036302;28;20029;-79
2021/04/08 03:21:05;;;;;;;1.17;0.40;;;;;;;;;;5048872;28;20020;-79
2021/04/08 03:23:30;;;;;;;1.20;0.40;;;;;;;;;;5021062;28;20051;-79
2021/04/08 03:25:55;;;;;;;0.83;0.40;;;;;;;;;;5018490;28;20024;-79
2021/04/08 03:28:21;;;;;;;0.90;0.43;;;;;;;;;;5051990;28;20048;-79
2021/04/08 03:30:47;;;;;;;0.80;0.40;;;;;;;;;;5034684;28;20024;-79
2021/04/08 03:33:12;;;;;;;0.67;0.33;;;;;;;;;;5054052;28;20116;-79
2021/04/08 03:35:38;;;;;;;1.77;0.50;;;;;;;;;;5015348;28;20017;-79
2021/04/08 03:38:04;;;;;;;0.93;0.30;;;;;;;;;;5048604;28;20028;-79
2021/04/08 03:40:29;;;;;;;0.75;0.40;;;;;;;;;;5033389;28;20021;-79
2021/04/08 03:42:55;;;;;;;1.37;0.50;;;;;;;;;;5025476;28;20028;-79
2021/04/08 03:45:20;;;;;;;1.17;0.50;;;;;;;;;;5035104;28;20052;-79
2021/04/08 03:47:45;;;;;;;1.93;0.50;;;;;;;;;;5035279;28;20060;-79
2021/04/08 03:50:11;;;;;;;0.60;0.40;;;;;;;;;;5046933;28;20077;-79
2021/04/08 03:52:37;;;;;;;1.07;0.40;;;;;;;;;;5006067;28;20129;-79
2021/04/08 03:55:03;;;;;;;0.85;0.40;;;;;;;;;;5005801;28;20083;-79
2021/04/08 03:57:29;;;;;;;0.70;0.40;;;;;;;;;;5038775;28;20392;-79
2021/04/08 03:59:54;;;;;;;1.37;0.47;;;;;;;;;;5040886;23;20028;-76
2021/04/08 04:02:19;;;;;;;0.97;0.50;;;;;;;;;;5064297;28;20114;-76
2021/04/08 04:04:45;;;;;;;0.80;0.40;;;;;;;;;;5061387;28;20036;-76
2021/04/08 04:07:10;;;;;;;0.77;0.40;;;;;;;;;;5074049;28;20123;-75
2021/04/08 04:09:36;;;;;;;0.73;0.30;;;;;;;;;;5061658;28;20063;-76
2021/04/08 04:12:02;;;;;;;2.43;0.30;;;;;;;;;;5078163;28;20038;-76
2021/04/08 04:14:28;;;;;;;0.60;0.40;;;;;;;;;;5081605;28;20049;-75
2021/04/08 04:16:55;;;;;;;0.50;0.32;;;;;;;;;;5067789;28;20095;-75
2021/04/08 04:19:20;;;;;;;;;;;;;;;;;;5068771;28;20020;-75
2021/04/08 04:21:45;;;;;;;0.95;0.43;;;;;;;;;;5110937;28;19912;-75
2021/04/08 04:24:11;;;;;;;1.07;0.50;;;;;;;;;;5077875;28;20023;-75
2021/04/08 04:26:36;;;;;;;0.90;0.40;;;;;;;;;;5079799;28;20122;-75
2021/04/08 04:29:02;;;;;;;0.80;0.43;;;;;;;;;;5094540;28;20110;-76
2021/04/08 04:31:28;;;;;;;1.58;0.35;;;;;;;;;;5080780;28;20023;-76
2021/04/08 04:33:53;;;;;;;1.80;0.40;;;;;;;;;;5063892;28;20030;-75
2021/04/08 04:36:19;;;;;;;0.87;0.40;;;;;;;;;;5080410;28;20478;-76
2021/04/08 04:38:44;;;;;;;1.97;0.50;;;;;;;;;;5076821;28;20030;-75
2021/04/08 04:41:10;;;;;;;0.97;0.33;;;;;;;;;;5043811;28;20031;-76
2021/04/08 04:43:35;;;;;;;0.50;0.30;;;;;;;;;;5094899;28;20052;-76
2021/04/08 04:46:00;;;;;;;1.23;0.50;;;;;;;;;;5060705;28;20107;-76
2021/04/08 04:48:26;;;;;;;1.30;0.40;;;;;;;;;;5077662;28;20126;-77
2021/04/08 04:50:52;;;;;;;0.90;0.50;;;;;;;;;;5077741;28;20052;-76
2021/04/08 04:53:17;;;;;;;1.15;0.40;;;;;;;;;;5044291;28;20039;-76
2021/04/08 04:55:43;;;;;;;0.97;0.30;;;;;;;;;;5094106;28;20020;-76
2021/04/08 04:58:08;;;;;;;1.47;0.47;;;;;;;;;;5077734;28;20052;-76
2021/04/08 05:00:33;;;;;;;0.97;0.40;;;;;;;;;;5077605;28;20051;-76
2021/04/08 05:02:59;;;;;;;2.57;0.47;;;;;;;;;;5077558;28;20517;-76
2021/04/08 05:05:24;;;;;;;0.50;0.37;;;;;;;;;;5077486;28;20056;-76
2021/04/08 05:07:49;;;;;;;1.83;0.50;;;;;;;;;;5077579;28;20054;-76
2021/04/08 05:10:15;;;;;;;0.87;0.40;;;;;;;;;;5077152;28;20067;-76
2021/04/08 05:12:40;;;;;;;0.93;0.40;;;;;;;;;;5077581;28;20040;-76
2021/04/08 05:15:06;;;;;;;0.93;0.30;;;;;;;;;;5082872;28;20529;-76
2021/04/08 05:17:32;;;;;;;1.08;0.47;;;;;;;;;;5080271;28;20031;-76
2021/04/08 05:19:58;;;;;;;0.90;0.30;;;;;;;;;;5096424;28;20028;-76
2021/04/08 05:22:23;;;;;;;0.75;0.30;;;;;;;;;;5096738;28;20027;-76
2021/04/08 05:24:49;;;;;;;1.00;0.43;;;;;;;;;;5096277;28;20103;-76
2021/04/08 05:27:14;;;;;;;0.40;0.27;;;;;;;;;;5079522;28;20031;-76
2021/04/08 05:29:39;;;;;;;0.93;0.40;;;;;;;;;;5062225;28;20114;-76
2021/04/08 05:32:05;;;;;;;0.57;0.30;;;;;;;;;;5097516;28;20039;-76
2021/04/08 05:34:30;;;;;;;0.83;0.30;;;;;;;;;;5080386;28;20019;-76
2021/04/08 05:36:56;;;;;;;1.43;0.37;;;;;;;;;;5080544;28;20122;-76
2021/04/08 05:39:21;;;;;;;0.70;0.30;;;;;;;;;;5115719;28;20019;-76
2021/04/08 05:41:47;;;;;;;1.20;0.40;;;;;;;;;;5097391;28;20055;-76
2021/04/08 05:44:12;;;;;;;2.50;0.50;;;;;;;;;;5080425;28;20052;-76
2021/04/08 05:46:37;;;;;;;0.87;0.33;;;;;;;;;;5080025;28;20474;-76
2021/04/08 05:49:03;;;;;;;1.43;0.50;;;;;;;;;;5079845;28;20117;-76
2021/04/08 05:51:28;;;;;;;1.07;0.40;;;;;;;;;;5080358;28;20034;-76
2021/04/08 05:53:53;;;;;;;1.43;0.50;;;;;;;;;;5080729;28;20431;-76
2021/04/08 05:56:19;;;;;;;0.93;0.40;;;;;;;;;;5080221;28;20170;-76
2021/04/08 05:58:44;;;;;;;1.70;0.40;;;;;;;;;;5079447;28;20055;-75
2021/04/08 06:01:09;;;;;;;1.67;0.33;;;;;;;;;;5115205;28;20055;-76
2021/04/08 06:03:35;;;;;;;0.73;0.33;;;;;;;;;;5080689;28;20055;-75
2021/04/08 06:06:00;;;;;;;0.87;0.40;;;;;;;;;;5115133;28;20377;-76
2021/04/08 06:08:25;;;;;;;0.73;0.23;;;;;;;;;;5096466;28;20111;-76
2021/04/08 06:10:51;;;;;;;0.60;0.30;;;;;;;;;;5070591;28;20038;-76
2021/04/08 06:13:16;;;;;;;1.40;0.40;;;;;;;;;;5091493;28;20067;-76
2021/04/08 06:15:41;;;;;;;0.97;0.40;;;;;;;;;;5082258;28;20055;-76
2021/04/08 06:18:07;;;;;;;0.63;0.30;;;;;;;;;;5059769;28;20083;-76
2021/04/08 06:20:32;;;;;;;1.03;0.40;;;;;;;;;;5096371;28;20494;-75
2021/04/08 06:22:57;;;;;;;1.00;0.30;;;;;;;;;;5079727;28;20026;-76
2021/04/08 06:25:23;;;;;;;0.60;0.40;;;;;;;;;;5062988;28;20494;-76
2021/04/08 06:27:49;;;;;;;0.85;0.40;;;;;;;;;;5079556;28;20020;-76
2021/04/08 06:30:15;;;;;;;0.63;0.30;;;;;;;;;;5096973;28;20478;-76
2021/04/08 06:32:40;;;;;;;2.03;0.50;;;;;;;;;;5076470;28;20048;-76
2021/04/08 06:35:06;;;;;;;1.10;0.33;;;;;;;;;;5076294;28;20047;-76
2021/04/08 06:37:32;;;;;;;2.03;0.40;;;;;;;;;;5077091;28;20020;-76
2021/04/08 06:39:57;;;;;;;0.57;0.40;;;;;;;;;;5059458;28;20028;-76
2021/04/08 06:42:23;;;;;;;0.90;0.37;;;;;;;;;;5080288;28;20073;-76
2021/04/08 06:44:52;;;;;;;0.73;0.40;;;;;;;;;;5063881;28;20024;-76
2021/04/08 06:47:21;;;;;;;0.93;0.30;;;;;;;;;;5063962;28;20069;-76
2021/04/08 06:49:51;;;;;;;0.35;0.20;;;;;;;;;;5064166;28;20026;-76
2021/04/08 06:52:17;;;;;;;1.00;0.40;;;;;;;;;;5063664;28;20023;-76
2021/04/08 06:54:43;;;;;;;1.05;0.40;;;;;;;;;;5063635;28;20448;-76
2021/04/08 06:57:08;;;;;;;0.77;0.30;;;;;;;;;;5063691;28;20060;-76
2021/04/08 06:59:34;;;;;;;0.57;0.37;;;;;;;;;;5047178;28;20371;-76
2021/04/08 07:01:59;;;;;;;0.73;0.30;;;;;;;;;;5080011;28;20514;-76
2021/04/08 07:04:25;;;;;;;0.80;0.37;;;;;;;;;;5062958;28;20069;-76
2021/04/08 07:06:50;;;;;;;0.70;0.40;;;;;;;;;;5063511;28;20020;-76
2021/04/08 07:09:16;;;;;;;0.70;0.30;;;;;;;;;;5100335;28;20123;-76
2021/04/08 07:11:41;;;;;;;0.87;0.40;;;;;;;;;;5083833;28;20542;-76
2021/04/08 07:14:08;;;;;;;0.70;0.30;;;;;;;;;;5083631;28;20078;-76
2021/04/08 07:16:34;;;;;;;1.30;0.40;;;;;;;;;;5083414;28;20027;-76
2021/04/08 07:18:59;;;;;;;1.57;0.40;;;;;;;;;;5083354;28;20027;-76
2021/04/08 07:21:31;;;;;;;0.50;0.40;;;;;;;;;;5083536;28;20408;-76
2021/04/08 07:24:13;;;;;;;0.50;0.32;;;;;;;;;;5084249;28;20412;-76
2021/04/08 07:27:00;;;;;;;1.17;0.40;;;;;;;;;;5100639;28;20027;-76
2021/04/08 07:29:40;;;;;;;0.80;0.22;;;;;;;;;;5101219;28;20024;-76
2021/04/08 07:32:07;;;;;;;1.92;0.40;;;;;;;;;;5118209;28;20035;-76
2021/04/08 07:34:33;;;;;;;1.75;0.40;;;;;;;;;;5083535;28;20019;-76
2021/04/08 07:36:58;;;;;;;1.25;0.40;;;;;;;;;;5072664;28;20032;-76
2021/04/08 07:39:23;;;;;;;0.87;0.37;;;;;;;;;;5061604;28;20028;-76
2021/04/08 07:42:04;;;;;;;1.03;0.53;;;;;;;;;;5064664;28;20065;-76
2021/04/08 07:44:29;;;;;;;0.63;0.30;;;;;;;;;;5081680;28;20023;-76
2021/04/08 07:46:55;;;;;;;0.40;0.30;;;;;;;;;;5081458;28;20031;-76
2021/04/08 07:49:33;;;;;;;2.05;0.30;;;;;;;;;;5081526;28;20023;-76
2021/04/08 07:52:18;;;;;;;0.93;0.40;;;;;;;;;;5080753;28;20031;-76
2021/04/08 07:55:02;;;;;;;1.42;0.40;;;;;;;;;;5116353;28;20034;-76
2021/04/08 07:57:28;;;;;;;0.88;0.40;;;;;;;;;;5116439;28;20095;-76
2021/04/08 07:59:54;;;;;;;0.98;0.40;;;;;;;;;;5081146;28;20027;-75
2021/04/08 08:02:25;;;;;;;1.08;0.40;;;;;;;;;;5064574;28;20082;-75
2021/04/08 08:05:12;;;;;;;0.70;0.32;;;;;;;;;;5098059;28;20505;-75
2021/04/08 08:07:37;;;;;;;0.77;0.40;;;;;;;;;;5076197;28;20035;-76
2021/04/08 08:10:03;;;;;;;0.87;0.37;;;;;;;;;;5095518;28;20798;-75
2021/04/08 08:12:31;;;;;;;0.70;0.33;;;;;;;;;;5077579;28;20115;-76
2021/04/08 08:15:13;;;;;;;1.73;0.30;;;;;;;;;;5096320;28;20024;-76
2021/04/08 08:17:38;;;;;;;0.85;0.45;;;;;;;;;;5077918;28;20043;-76
2021/04/08 08:20:05;;;;;;;0.63;0.30;;;;;;;;;;5077272;28;20067;-76
2021/04/08 08:22:34;;;;;;;1.02;0.40;;;;;;;;;;5060646;28;20028;-76
2021/04/08 08:25:00;;;;;;;1.30;0.50;;;;;;;;;;5044852;28;20490;-76
2021/04/08 08:27:38;;;;;;;1.30;0.52;;;;;;;;;;5064537;28;20516;-76
2021/04/08 08:30:03;;;;;;;0.63;0.40;;;;;;;;;;5108238;28;20019;-76
2021/04/08 08:32:29;;;;;;;1.17;0.40;;;;;;;;;;5115194;28;20070;-76
2021/04/08 08:34:54;;;;;;;1.33;0.40;;;;;;;;;;5069288;28;20441;-76
2021/04/08 08:37:20;;;;;;;1.07;0.30;;;;;;;;;;5113708;28;20050;-76
2021/04/08 08:39:47;;;;;;;0.95;0.30;;;;;;;;;;5060462;28;20522;-76
2021/04/08 08:42:14;;;;;;;0.77;0.50;;;;;;;;;;5079047;28;20027;-76
2021/04/08 08:44:39;;;;;;;0.43;0.30;;;;;;;;;;5080489;28;20066;-76
2021/04/08 08:47:09;;;;;;;1.20;0.30;;;;;;;;;;5044130;28;20052;-76
2021/04/08 08:49:50;;;;;;;1.73;0.40;;;;;;;;;;5094910;28;20020;-76
2021/04/08 08:52:23;;;;;;;0.70;0.40;;;;;;;;;;5078716;28;20028;-76
2021/04/08 08:54:49;;;;;;;2.10;0.50;;;;;;;;;;5097163;28;20030;-76
2021/04/08 08:57:15;;;;;;;0.97;0.50;;;;;;;;;;5079440;28;20023;-75
2021/04/08 08:59:40;;;;;;;0.70;0.38;;;;;;;;;;5064323;28;20031;-76
2021/04/08 09:02:06;;;;;;;1.27;0.60;;;;;;;;;;5063381;28;20087;-76
2021/04/08 09:04:31;;;;;;;1.73;0.50;;;;;;;;;;5062384;28;20528;-76
2021/04/08 09:06:58;;;;;;;0.97;0.40;;;;;;;;;;5079688;28;20132;-76
2021/04/08 09:09:25;;;;;;;0.70;0.40;;;;;;;;;;5095203;28;20031;-76
2021/04/08 09:11:51;;;;;;;0.70;0.40;;;;;;;;;;5061197;28;20084;-76
2021/04/08 09:14:16;;;;;;;0.97;0.50;;;;;;;;;;5068250;28;20019;-76
2021/04/08 09:16:43;;;;;;;0.77;0.37;;;;;;;;;;5048870;28;20059;-76
2021/04/08 09:19:09;;;;;;;;;;;;;;;;;;5060149;28;20028;-76
2021/04/08 09:21:49;;;;;;;0.68;0.40;;;;;;;;;;5095926;28;19934;-76
2021/04/08 09:24:16;;;;;;;1.15;0.50;;;;;;;;;;5084161;28;20019;-76
2021/04/08 09:26:43;;;;;;;1.08;0.38;;;;;;;;;;5114547;28;20077;-75
2021/04/08 09:29:09;;;;;;;0.98;0.40;;;;;;;;;;5068774;28;20089;-76
2021/04/08 09:31:35;;;;;;;0.95;0.40;;;;;;;;;;5094302;28;20020;-76
2021/04/08 09:34:02;;;;;;;0.90;0.30;;;;;;;;;;5075966;28;20028;-76
2021/04/08 09:36:41;;;;;;;0.75;0.43;;;;;;;;;;5059522;28;20027;-76
2021/04/08 09:39:06;;;;;;;0.68;0.40;;;;;;;;;;5060990;28;20077;-76
2021/04/08 09:41:40;;;;;;;0.40;0.30;;;;;;;;;;5093976;28;20466;-76
2021/04/08 09:44:06;;;;;;;0.70;0.40;;;;;;;;;;5110589;28;20505;-76
2021/04/08 09:47:09;;;;;;;0.63;0.40;;;;;;;;;;5079111;28;20130;-76
2021/04/08 09:49:40;;;;;;;1.05;0.52;;;;;;;;;;5083348;28;20032;-76
2021/04/08 09:52:06;;;;;;;1.05;0.50;;;;;;;;;;5093688;28;20340;-76
2021/04/08 09:55:04;;;;;;;0.77;0.50;;;;;;;;;;5058930;28;20024;-76
2021/04/08 09:57:32;;;;;;;1.23;0.45;;;;;;;;;;5060537;28;20126;-76
2021/04/08 09:59:58;;;;;;;1.55;0.50;;;;;;;;;;5103698;28;20035;-76
2021/04/08 10:02:27;;;;;;;1.80;0.50;;;;;;;;;;5085422;22;20028;-76
2021/04/08 10:05:03;;;;;;;1.00;0.40;;;;;;;;;;5051987;28;20283;-76
2021/04/08 10:07:29;;;;;;;0.98;0.45;;;;;;;;;;5055341;28;20031;-76
2021/04/08 10:09:55;;;;;;;0.60;0.40;;;;;;;;;;5051846;28;20119;-76
2021/04/08 10:12:33;;;;;;;1.10;0.40;;;;;;;;;;5053051;28;20025;-76
2021/04/08 10:14:58;;;;;;;0.75;0.50;;;;;;;;;;5042511;28;20422;-77
2021/04/08 10:17:34;;;;;;;1.00;0.40;;;;;;;;;;5038612;28;20025;-76
2021/04/08 10:20:00;;;;;;;1.70;0.45;;;;;;;;;;5050754;28;20680;-77
2021/04/08 10:22:25;;;;;;;1.77;0.40;;;;;;;;;;5028265;28;20020;-76
2021/04/08 10:24:51;;;;;;;0.90;0.37;;;;;;;;;;5035358;28;20120;-76
2021/04/08 10:27:25;;;;;;;1.02;0.55;;;;;;;;;;5019359;28;20085;-76
2021/04/08 10:29:51;;;;;;;1.35;0.45;;;;;;;;;;5035279;28;20058;-77
2021/04/08 10:32:29;;;;;;;0.50;0.37;;;;;;;;;;5075125;28;20024;-76
2021/04/08 10:34:54;;;;;;;1.73;0.57;;;;;;;;;;5058200;28;20024;-76
2021/04/08 10:37:20;;;;;;;1.90;0.50;;;;;;;;;;5057278;28;20032;-76
2021/04/08 10:39:46;;;;;;;0.60;0.40;;;;;;;;;;5039231;28;20030;-77
2021/04/08 10:42:13;;;;;;;0.88;0.40;;;;;;;;;;5038859;28;20281;-78
2021/04/08 10:44:48;;;;;;;0.95;0.50;;;;;;;;;;5016719;28;20056;-78
2021/04/08 10:47:19;;;;;;;1.80;0.50;;;;;;;;;;5023975;28;20017;-77
2021/04/08 10:50:01;;;;;;;0.80;0.50;;;;;;;;;;5057527;28;20478;-77
2021/04/08 10:52:28;;;;;;;1.42;0.50;;;;;;;;;;5059692;28;20110;-77
2021/04/08 10:54:57;;;;;;;0.75;0.40;;;;;;;;;;5023095;28;20029;-77
2021/04/08 10:57:23;;;;;;;0.70;0.32;;;;;;;;;;5016406;28;20658;-77
2021/04/08 10:59:49;;;;;;;0.70;0.30;;;;;;;;;;5050180;28;20036;-77
2021/04/08 11:02:31;;;;;;;0.93;0.50;;;;;;;;;;5031916;28;20128;-78
2021/04/08 11:04:58;;;;;;;0.88;0.43;;;;;;;;;;5024083;28;20036;-77
2021/04/08 11:07:24;;;;;;;0.60;0.32;;;;;;;;;;5002013;28;20021;-77
2021/04/08 11:09:50;;;;;;;0.80;0.47;;;;;;;;;;5018520;28;20502;-76
2021/04/08 11:12:20;;;;;;;1.10;0.40;;;;;;;;;;5001875;28;20029;-77
2021/04/08 11:14:46;;;;;;;0.98;0.50;;;;;;;;;;5018269;28;20033;-76
2021/04/08 11:17:12;;;;;;;0.88;0.40;;;;;;;;;;5034966;28;20396;-77
2021/04/08 11:19:37;;;;;;;0.97;0.50;;;;;;;;;;5001907;28;20025;-77
2021/04/08 11:22:02;;;;;;;0.60;0.40;;;;;;;;;;5011159;28;20056;-77
2021/04/08 11:24:31;;;;;;;1.23;0.37;;;;;;;;;;5032889;28;20169;-76
2021/04/08 11:26:57;;;;;;;1.17;0.50;;;;;;;;;;5002085;28;20021;-76
2021/04/08 11:29:23;;;;;;;1.50;0.40;;;;;;;;;;5026127;28;20506;-77
2021/04/08 11:32:05;;;;;;;1.20;0.50;;;;;;;;;;5025260;28;20395;-76
2021/04/08 11:34:44;;;;;;;1.20;0.50;;;;;;;;;;5058776;28;20024;-77
2021/04/08 11:37:10;;;;;;;0.98;0.40;;;;;;;;;;5003877;28;20042;-78
2021/04/08 11:39:35;;;;;;;2.63;0.60;;;;;;;;;;5005045;28;20028;-77
2021/04/08 11:42:17;;;;;;;0.90;0.50;;;;;;;;;;5014985;28;20771;-77
2021/04/08 11:44:43;;;;;;;0.68;0.40;;;;;;;;;;5014865;28;20563;-77
2021/04/08 11:47:26;;;;;;;0.90;0.50;;;;;;;;;;5015058;28;20056;-77
2021/04/08 11:49:53;;;;;;;1.15;0.50;;;;;;;;;;5003833;28;20565;-77
2021/04/08 11:52:21;;;;;;;1.48;0.45;;;;;;;;;;4979201;28;20104;-77
2021/04/08 11:55:05;;;;;;;1.15;0.40;;;;;;;;;;4995679;28;20069;-77
2021/04/08 11:57:30;;;;;;;1.50;0.50;;;;;;;;;;5007472;28;20040;-78
2021/04/08 12:00:11;;;;;;;1.23;0.40;;;;;;;;;;5004530;28;20066;-76
2021/04/08 12:02:37;;;;;;;1.50;0.50;;;;;;;;;;4999636;28;20022;-76
2021/04/08 12:05:12;;;;;;;1.33;0.50;;;;;;;;;;5014411;28;20029;-77
2021/04/08 12:07:45;;;;;;;1.25;0.40;;;;;;;;;;5015051;28;20026;-77
2021/04/08 12:10:31;;;;;;;1.40;0.40;;;;;;;;;;4997562;28;20432;-76
2021/04/08 12:13:00;;;;;;;1.48;0.52;;;;;;;;;;4996215;28;20385;-76
2021/04/08 12:15:32;;;;;;;0.65;0.40;;;;;;;;;;5005767;28;20025;-77
2021/04/08 12:17:57;;;;;;;1.00;0.50;;;;;;;;;;4999265;28;20040;-77
2021/04/08 12:20:23;;;;;;;1.00;0.50;;;;;;;;;;4994858;28;20151;-76
2021/04/08 12:22:49;;;;;;;0.98;0.50;;;;;;;;;;4994725;28;20485;-76
2021/04/08 12:25:18;;;;;;;1.13;0.50;;;;;;;;;;4999289;28;20044;-76
2021/04/08 12:27:44;;;;;;;1.00;0.50;;;;;;;;;;4990602;28;20440;-77
2021/04/08 12:30:10;;;;;;;0.90;0.50;;;;;;;;;;4995942;28;20137;-77
2021/04/08 12:32:35;;;;;;;1.45;0.50;;;;;;;;;;5012017;28;20386;-76
2021/04/08 12:35:01;;;;;;;1.33;0.50;;;;;;;;;;5014194;28;20033;-76
2021/04/08 12:37:26;;;;;;;0.73;0.37;;;;;;;;;;5009053;28;20029;-76
2021/04/08 12:39:55;;;;;;;0.53;0.37;;;;;;;;;;4994087;28;20536;-76
2021/04/08 12:42:21;;;;;;;0.73;0.47;;;;;;;;;;5009323;28;20029;-77
2021/04/08 12:44:47;;;;;;;1.17;0.50;;;;;;;;;;5013962;28;20109;-76
2021/04/08 12:47:13;;;;;;;1.20;0.50;;;;;;;;;;5009079;28;20124;-77
2021/04/08 12:49:38;;;;;;;0.82;0.40;;;;;;;;;;5013471;28;20061;-76
2021/04/08 12:52:04;;;;;;;1.60;0.50;;;;;;;;;;5002694;28;20064;-77
2021/04/08 12:54:33;;;;;;;1.63;0.53;;;;;;;;;;4994227;28;20462;-76
2021/04/08 12:56:58;;;;;;;0.98;0.50;;;;;;;;;;5003931;28;20049;-77
2021/04/08 12:59:24;;;;;;;1.10;0.50;;;;;;;;;;5013093;28;20087;-77
2021/04/08 13:01:49;;;;;;;0.80;0.50;;;;;;;;;;5003420;28;20031;-77
2021/04/08 13:04:14;;;;;;;1.07;0.50;;;;;;;;;;4994223;28;20481;-76
2021/04/08 13:06:40;;;;;;;1.07;0.50;;;;;;;;;;4993935;28;20081;-76
2021/04/08 13:09:05;;;;;;;1.17;0.50;;;;;;;;;;4993755;28;20113;-76
2021/04/08 13:11:30;;;;;;;0.97;0.50;;;;;;;;;;5006903;28;20036;-76
2021/04/08 13:13:56;;;;;;;0.97;0.50;;;;;;;;;;5013431;28;20068;-77
2021/04/08 13:16:21;;;;;;;1.23;0.57;;;;;;;;;;5008828;28;20449;-77
2021/04/08 13:18:46;;;;;;;0.70;0.40;;;;;;;;;;4993828;28;20102;-76
2021/04/08 13:21:12;;;;;;;1.07;0.53;;;;;;;;;;5003936;28;20547;-76
2021/04/08 13:23:37;;;;;;;0.77;0.40;;;;;;;;;;5013325;28;20507;-76
2021/04/08 13:26:02;;;;;;;0.73;0.30;;;;;;;;;;5014129;28;20076;-76
2021/04/08 13:28:28;;;;;;;0.70;0.40;;;;;;;;;;4996663;28;20021;-76
2021/04/08 13:30:53;;;;;;;1.00;0.50;;;;;;;;;;5012803;28;20037;-76
2021/04/08 13:33:18;;;;;;;0.90;0.50;;;;;;;;;;5013107;28;20054;-76
2021/04/08 13:35:44;;;;;;;0.87;0.50;;;;;;;;;;5013091;28;20100;-76
2021/04/08 13:38:09;;;;;;;1.10;0.53;;;;;;;;;;5012313;28;20025;-76
2021/04/08 13:40:36;;;;;;;2.23;0.50;;;;;;;;;;5004659;28;20109;-76
2021/04/08 13:43:17;;;;;;;1.00;0.57;;;;;;;;;;4992972;28;20026;-76
2021/04/08 13:45:58;;;;;;;0.70;0.40;;;;;;;;;;4994625;28;20388;-76
2021/04/08 13:48:23;;;;;;;1.08;0.50;;;;;;;;;;5027482;28;20022;-76
2021/04/08 13:50:49;;;;;;;2.83;0.50;;;;;;;;;;5028556;28;20117;-76
2021/04/08 13:53:14;;;;;;;0.97;0.40;;;;;;;;;;5013378;28;20073;-76
2021/04/08 13:55:40;;;;;;;1.60;0.60;;;;;;;;;;5012699;28;20260;-76
2021/04/08 13:58:05;;;;;;;1.33;0.60;;;;;;;;;;5005226;28;20123;-76
2021/04/08 14:00:30;;;;;;;0.90;0.50;;;;;;;;;;5012590;28;20054;-76
2021/04/08 14:02:56;;;;;;;0.90;0.40;;;;;;;;;;5013734;28;20049;-76
2021/04/08 14:05:21;;;;;;;1.40;0.47;;;;;;;;;;5013826;28;20061;-76
2021/04/08 14:07:47;;;;;;;1.63;0.50;;;;;;;;;;5025278;28;20026;-76
2021/04/08 14:10:13;;;;;;;1.43;0.60;;;;;;;;;;5028771;28;20021;-76
2021/04/08 14:12:39;;;;;;;1.58;0.50;;;;;;;;;;5012440;28;20469;-75
2021/04/08 14:15:05;;;;;;;1.67;0.50;;;;;;;;;;5012655;28;20029;-77
2021/04/08 14:17:31;;;;;;;1.23;0.50;;;;;;;;;;5012132;28;20025;-76
2021/04/08 14:19:56;;;;;;;1.63;0.60;;;;;;;;;;5012218;28;20065;-76
2021/04/08 14:22:22;;;;;;;1.53;0.60;;;;;;;;;;5012337;28;20060;-76
2021/04/08 14:24:47;;;;;;;1.50;0.43;;;;;;;;;;5012128;28;20080;-76
2021/04/08 14:27:12;;;;;;;0.73;0.50;;;;;;;;;;5013589;28;20099;-76
2021/04/08 14:29:38;;;;;;;0.60;0.40;;;;;;;;;;5028596;28;20088;-76
2021/04/08 14:32:05;;;;;;;0.77;0.57;;;;;;;;;;5028438;28;20117;-75
2021/04/08 14:34:30;;;;;;;1.95;0.55;;;;;;;;;;5012221;28;20030;-75
2021/04/08 14:36:56;;;;;;;1.53;0.50;;;;;;;;;;5012355;28;20026;-75
2021/04/08 14:39:21;;;;;;;1.33;0.50;;;;;;;;;;5028527;28;20104;-76
2021/04/08 14:41:46;;;;;;;1.10;0.50;;;;;;;;;;5013268;28;20108;-76
2021/04/08 14:44:12;;;;;;;1.23;0.60;;;;;;;;;;5012050;28;20053;-76
2021/04/08 14:46:37;;;;;;;1.83;0.50;;;;;;;;;;5012172;28;20026;-77